createdAt,value
2023-03-29T00:00:38.298Z,70.8656
2023-03-29T00:02:41.472Z,72.2790
2023-03-29T00:03:43.047Z,73.8133
2023-03-29T00:04:43.004Z,74.3580
2023-03-29T00:05:43.039Z,75.7453
2023-03-29T00:06:43.049Z,77.0549
2023-03-29T00:07:44.268Z,78.2891
2023-03-29T00:08:44.394Z,77.8830
2023-03-29T00:09:45.642Z,78.4754
2023-03-29T00:10:45.732Z,79.1366
2023-03-29T00:11:46.953Z,78.8856
2023-03-29T00:12:48.283Z,80.0121
2023-03-29T00:13:49.526Z,78.6948
2023-03-29T00:14:50.929Z,75.5807
2023-03-29T00:15:52.111Z,77.0020
2023-03-29T00:16:53.690Z,76.7030
2023-03-29T00:17:55.082Z,74.4734
2023-03-29T00:18:55.172Z,74.9375
2023-03-29T00:19:56.427Z,75.1833
2023-03-29T00:20:57.813Z,74.2028
2023-03-29T00:21:59.037Z,74.1757
2023-03-29T00:22:59.476Z,74.4837
2023-03-29T00:24:00.674Z,74.1299
2023-03-29T00:25:00.714Z,73.9884
2023-03-29T00:26:02.031Z,73.3702
2023-03-29T00:27:03.565Z,73.2961
2023-03-29T00:28:04.854Z,74.3709
2023-03-29T00:29:06.219Z,75.8735
2023-03-29T00:30:07.429Z,73.0383
2023-03-29T00:31:08.898Z,74.1149
2023-03-29T00:32:10.207Z,72.2171
2023-03-29T00:33:10.357Z,71.1803
2023-03-29T00:34:11.622Z,68.7202
2023-03-29T00:35:11.631Z,66.1276
2023-03-29T00:36:12.907Z,68.7972
2023-03-29T00:37:12.974Z,70.4175
2023-03-29T00:38:14.181Z,69.8662
2023-03-29T00:39:15.492Z,70.1255
2023-03-29T00:40:16.803Z,68.0306
2023-03-29T00:41:17.186Z,70.4660
2023-03-29T00:42:18.386Z,70.5858
2023-03-29T00:43:18.479Z,69.9968
2023-03-29T00:44:19.791Z,66.8115
2023-03-29T00:45:21.228Z,66.8601
2023-03-29T00:46:22.659Z,65.6948
2023-03-29T00:47:22.957Z,66.9947
2023-03-29T00:48:24.369Z,68.2341
2023-03-29T00:49:24.369Z,68.1162
2023-03-29T00:50:25.571Z,67.8660
2023-03-29T00:51:26.956Z,69.1597
2023-03-29T00:52:28.231Z,69.5380
2023-03-29T00:53:29.679Z,70.4914
2023-03-29T00:54:30.959Z,70.6761
2023-03-29T00:55:32.392Z,69.2356
2023-03-29T00:56:32.488Z,69.0113
2023-03-29T00:57:34.012Z,67.1772
2023-03-29T00:58:35.246Z,66.7544
2023-03-29T00:59:36.724Z,66.1519
2023-03-29T01:00:38.048Z,68.0202
2023-03-29T01:01:38.179Z,68.0864
2023-03-29T01:02:38.456Z,66.6433
2023-03-29T01:03:40.163Z,64.6238
2023-03-29T01:04:41.444Z,64.6424
2023-03-29T01:05:42.750Z,64.8627
2023-03-29T01:06:43.864Z,64.5153
2023-03-29T01:07:44.524Z,64.9928
2023-03-29T01:08:45.745Z,66.5120
2023-03-29T01:09:45.852Z,65.7577
2023-03-29T01:10:47.126Z,65.8902
2023-03-29T01:11:48.483Z,66.3698
2023-03-29T01:12:49.715Z,66.6645
2023-03-29T01:13:51.205Z,67.1667
2023-03-29T01:14:52.484Z,67.6327
2023-03-29T01:15:53.932Z,67.7088
2023-03-29T01:16:55.338Z,67.3339
2023-03-29T01:17:55.683Z,68.6689
2023-03-29T01:18:55.798Z,68.2436
2023-03-29T01:29:06.493Z,65.9680
2023-03-29T01:30:07.869Z,66.9275
2023-03-29T01:31:09.164Z,67.4623
2023-03-29T01:32:09.230Z,66.1197
2023-03-29T01:33:10.549Z,65.2288
2023-03-29T01:34:11.913Z,64.2415
2023-03-29T01:35:11.990Z,65.2325
2023-03-29T01:36:13.538Z,66.2781
2023-03-29T01:37:14.756Z,67.2404
2023-03-29T01:38:16.127Z,66.9369
2023-03-29T01:39:17.396Z,67.9623
2023-03-29T01:40:18.736Z,67.7982
2023-03-29T01:41:20.038Z,65.3259
2023-03-29T01:42:21.529Z,65.0433
2023-03-29T01:43:23.553Z,65.5743
2023-03-29T01:44:23.385Z,66.9408
2023-03-29T01:45:24.715Z,66.3271
2023-03-29T01:46:24.817Z,66.5029
2023-03-29T01:47:24.892Z,66.1389
2023-03-29T01:48:26.106Z,65.8843
2023-03-29T01:49:27.413Z,65.7996
2023-03-29T01:50:28.627Z,65.6625
2023-03-29T01:51:29.950Z,67.3981
2023-03-29T01:52:31.202Z,67.0836
2023-03-29T01:53:31.245Z,67.4493
2023-03-29T01:54:32.612Z,67.5186
2023-03-29T02:04:41.706Z,69.1288
2023-03-29T02:05:41.763Z,68.1153
2023-03-29T02:06:42.986Z,67.4876
2023-03-29T02:07:44.301Z,69.0585
2023-03-29T02:08:45.526Z,69.1062
2023-03-29T02:09:45.589Z,67.4213
2023-03-29T02:10:45.714Z,67.2258
2023-03-29T02:11:47.163Z,67.4244
2023-03-29T02:12:48.534Z,69.9696
2023-03-29T02:13:48.471Z,67.8645
2023-03-29T02:14:48.550Z,67.0170
2023-03-29T02:15:50.041Z,67.4687
2023-03-29T02:16:50.082Z,69.7757
2023-03-29T02:17:51.428Z,71.4957
2023-03-29T02:18:51.702Z,69.7769
2023-03-29T02:19:53.069Z,68.2750
2023-03-29T02:20:53.159Z,69.3086
2023-03-29T02:21:53.144Z,72.2263
2023-03-29T02:22:54.438Z,72.7509
2023-03-29T02:28:59.466Z,68.8721
2023-03-29T02:29:59.500Z,70.7685
2023-03-29T02:31:01.045Z,70.2723
2023-03-29T02:32:01.704Z,70.3972
2023-03-29T02:33:01.777Z,69.2119
2023-03-29T02:34:01.870Z,69.1598
2023-03-29T02:35:01.908Z,69.0346
2023-03-29T02:36:02.023Z,69.8435
2023-03-29T02:37:02.130Z,68.5100
2023-03-29T02:38:03.530Z,70.1893
2023-03-29T02:39:03.684Z,70.2278
2023-03-29T02:40:04.986Z,67.5301
2023-03-29T02:41:06.493Z,67.6139
2023-03-29T02:42:07.785Z,66.9794
2023-03-29T02:44:09.035Z,70.7933
2023-03-29T02:45:10.376Z,72.6477
2023-03-29T02:46:10.472Z,73.1681
2023-03-29T02:47:10.558Z,70.4585
2023-03-29T02:48:10.669Z,68.3728
2023-03-29T02:49:12.038Z,69.8428
2023-03-29T02:50:13.702Z,70.9910
2023-03-29T02:51:15.916Z,69.2085
2023-03-29T02:52:15.922Z,71.4815
2023-03-29T02:53:15.955Z,70.0975
2023-03-29T02:54:17.338Z,70.0626
2023-03-29T02:55:17.423Z,67.8080
2023-03-29T02:56:18.638Z,69.7826
2023-03-29T02:57:20.221Z,73.7116
2023-03-29T02:58:20.236Z,73.9731
2023-03-29T02:59:21.580Z,73.4305
2023-03-29T03:00:21.672Z,74.6368
2023-03-29T03:01:23.092Z,72.2301
2023-03-29T03:02:23.335Z,74.1999
2023-03-29T03:03:23.954Z,74.4156
2023-03-29T03:04:24.308Z,73.0038
2023-03-29T03:05:25.614Z,71.8100
2023-03-29T03:06:25.752Z,72.5494
2023-03-29T03:07:27.024Z,71.4539
2023-03-29T03:09:29.787Z,68.3877
2023-03-29T03:11:31.124Z,70.3274
2023-03-29T03:12:31.477Z,70.0912
2023-03-29T03:13:32.753Z,69.0487
2023-03-29T03:14:33.101Z,69.2071
2023-03-29T03:15:34.401Z,69.8054
2023-03-29T03:16:34.865Z,70.2785
2023-03-29T03:17:34.856Z,72.3971
2023-03-29T03:18:36.149Z,73.1342
2023-03-29T03:19:36.286Z,72.1590
2023-03-29T03:20:37.553Z,72.1102
2023-03-29T03:21:38.538Z,71.3336
2023-03-29T03:22:39.867Z,73.5324
2023-03-29T03:23:39.981Z,73.0298
2023-03-29T03:27:42.479Z,71.4501
2023-03-29T03:28:42.539Z,71.9139
2023-03-29T03:29:43.922Z,71.6373
2023-03-29T03:30:44.086Z,70.2902
2023-03-29T03:31:44.191Z,66.3506
2023-03-29T03:32:44.304Z,65.4485
2023-03-29T03:33:45.638Z,67.8412
2023-03-29T03:34:47.182Z,68.5326
2023-03-29T03:35:48.512Z,68.4525
2023-03-29T03:36:48.633Z,68.3578
2023-03-29T03:37:49.942Z,70.3489
2023-03-29T03:38:51.442Z,71.6587
2023-03-29T03:39:52.731Z,70.4374
2023-03-29T03:41:55.400Z,68.2615
2023-03-29T03:42:55.759Z,68.5160
2023-03-29T03:43:56.277Z,69.9604
2023-03-29T03:44:56.324Z,69.8739
2023-03-29T03:45:56.586Z,69.2636
2023-03-29T03:46:57.090Z,70.3912
2023-03-29T03:47:57.200Z,69.0552
2023-03-29T03:48:57.383Z,71.4492
2023-03-29T03:49:57.417Z,72.5322
2023-03-29T03:50:57.441Z,73.6826
2023-03-29T03:51:58.788Z,72.5309
2023-03-29T03:52:58.928Z,72.3597
2023-03-29T03:54:00.250Z,71.0240
2023-03-29T03:55:01.789Z,72.0669
2023-03-29T03:56:03.148Z,73.1529
2023-03-29T03:57:04.825Z,71.3166
2023-03-29T03:58:06.109Z,70.8298
2023-03-29T03:59:06.341Z,71.6931
2023-03-29T04:00:07.692Z,73.0329
2023-03-29T04:01:07.680Z,70.6095
2023-03-29T04:02:07.824Z,69.3392
2023-03-29T04:03:08.093Z,68.7900
2023-03-29T04:04:09.167Z,69.3694
2023-03-29T04:05:09.459Z,71.0439
2023-03-29T04:06:09.495Z,72.2224
2023-03-29T04:07:10.744Z,70.6040
2023-03-29T04:08:12.158Z,68.6091
2023-03-29T04:09:13.480Z,71.2446
2023-03-29T04:10:13.640Z,72.1621
2023-03-29T04:11:14.909Z,72.3573
2023-03-29T04:12:15.031Z,73.4696
2023-03-29T04:13:16.337Z,69.0641
2023-03-29T04:14:17.840Z,67.0562
2023-03-29T04:15:17.855Z,68.7539
2023-03-29T04:16:18.067Z,69.1600
2023-03-29T04:17:18.189Z,70.1326
2023-03-29T04:18:18.770Z,67.7651
2023-03-29T04:19:20.085Z,68.8156
2023-03-29T04:20:20.389Z,69.0562
2023-03-29T04:21:21.659Z,68.7727
2023-03-29T04:22:21.915Z,69.1009
2023-03-29T04:34:35.111Z,66.6283
2023-03-29T04:35:35.523Z,65.6437
2023-03-29T04:36:36.744Z,66.4154
2023-03-29T04:37:38.372Z,67.4168
2023-03-29T04:38:38.367Z,68.8074
2023-03-29T04:39:38.593Z,68.8663
2023-03-29T04:40:38.681Z,67.2282
2023-03-29T04:41:40.040Z,68.5436
2023-03-29T04:42:40.082Z,68.3945
2023-03-29T04:43:41.452Z,67.1339
2023-03-29T04:44:42.981Z,66.2680
2023-03-29T04:45:43.017Z,67.2573
2023-03-29T04:46:43.247Z,65.4195
2023-03-29T04:47:43.281Z,66.4576
2023-03-29T04:48:43.308Z,67.4923
2023-03-29T04:49:43.433Z,68.8406
2023-03-29T04:50:44.674Z,68.1131
2023-03-29T04:51:44.998Z,66.4417
2023-03-29T04:52:46.546Z,63.1036
2023-03-29T04:53:46.669Z,62.3730
2023-03-29T04:54:47.978Z,61.7604
2023-03-29T04:55:48.089Z,59.7891
2023-03-29T04:56:49.431Z,58.8718
2023-03-29T04:57:49.512Z,58.3413
2023-03-29T04:58:50.772Z,59.0866
2023-03-29T04:59:52.113Z,59.2449
2023-03-29T05:00:52.280Z,58.3992
2023-03-29T05:01:52.348Z,58.8459
2023-03-29T05:02:52.650Z,59.5062
2023-03-29T05:03:52.761Z,60.0648
2023-03-29T05:04:53.157Z,59.2257
2023-03-29T05:05:53.240Z,59.3305
2023-03-29T05:06:53.422Z,59.4412
2023-03-29T05:07:54.833Z,59.7323
2023-03-29T05:08:55.226Z,59.9972
2023-03-29T05:09:55.460Z,60.0297
2023-03-29T05:10:55.773Z,59.0295
2023-03-29T05:11:55.983Z,58.2474
2023-03-29T05:12:56.097Z,58.4478
2023-03-29T05:13:56.218Z,58.4335
2023-03-29T05:14:56.463Z,58.5278
2023-03-29T05:15:57.360Z,59.7157
2023-03-29T05:16:57.594Z,61.4672
2023-03-29T05:17:58.186Z,60.8129
2023-03-29T05:18:58.585Z,58.6433
2023-03-29T05:19:59.171Z,59.0284
2023-03-29T05:20:59.878Z,59.8798
2023-03-29T05:22:00.594Z,59.3284
2023-03-29T05:23:00.642Z,59.2545
2023-03-29T05:24:01.941Z,60.3204
2023-03-29T05:25:02.110Z,60.3184
2023-03-29T05:26:03.451Z,60.4321
2023-03-29T05:27:03.610Z,61.2822
2023-03-29T05:28:03.679Z,61.4307
2023-03-29T05:29:03.640Z,61.4843
2023-03-29T05:30:03.777Z,60.6630
2023-03-29T05:31:04.273Z,61.0208
2023-03-29T05:32:04.853Z,60.5167
2023-03-29T05:33:04.885Z,60.2399
2023-03-29T05:34:06.363Z,60.6613
2023-03-29T05:35:06.472Z,59.5417
2023-03-29T05:36:06.823Z,58.7807
2023-03-29T05:37:07.086Z,59.1550
2023-03-29T05:38:07.248Z,63.4349
2023-03-29T05:39:07.323Z,63.3020
2023-03-29T05:40:08.127Z,63.5637
2023-03-29T05:41:09.284Z,60.7101
2023-03-29T05:42:09.579Z,60.5165
2023-03-29T05:43:09.458Z,60.5626
2023-03-29T05:44:09.624Z,60.4359
2023-03-29T05:46:10.862Z,59.9861
2023-03-29T05:47:11.214Z,61.4547
2023-03-29T05:48:11.290Z,61.4608
2023-03-29T05:49:11.546Z,60.5085
2023-03-29T05:50:11.678Z,61.5640
2023-03-29T05:51:12.552Z,60.7146
2023-03-29T05:52:12.717Z,60.6746
2023-03-29T05:53:12.874Z,60.3993
2023-03-29T05:54:14.248Z,61.4626
2023-03-29T05:55:14.381Z,61.9355
2023-03-29T05:56:14.494Z,62.8257
2023-03-29T05:57:14.706Z,62.3937
2023-03-29T05:58:14.870Z,62.4450
2023-03-29T05:59:15.033Z,63.4599
2023-03-29T06:00:15.058Z,62.7780
2023-03-29T06:01:15.810Z,63.1465
2023-03-29T06:02:15.952Z,62.8812
2023-03-29T06:03:22.553Z,62.7268
2023-03-29T06:04:23.155Z,64.0182
2023-03-29T06:05:23.331Z,63.3858
2023-03-29T06:06:24.783Z,63.2586
2023-03-29T06:07:24.939Z,63.6292
2023-03-29T06:08:25.071Z,64.3711
2023-03-29T06:09:25.355Z,63.9333
2023-03-29T06:16:29.731Z,62.0312
2023-03-29T06:17:30.226Z,62.5409
2023-03-29T06:18:30.814Z,63.8263
2023-03-29T06:19:30.843Z,62.3931
2023-03-29T06:20:30.931Z,61.7461
2023-03-29T06:21:31.127Z,60.1129
2023-03-29T06:22:32.498Z,60.1999
2023-03-29T06:23:32.572Z,59.8905
2023-03-29T06:24:33.023Z,59.3920
2023-03-29T06:25:34.114Z,60.3187
2023-03-29T06:26:34.399Z,60.6910
2023-03-29T06:27:34.497Z,61.6967
2023-03-29T06:28:34.540Z,59.3142
2023-03-29T06:29:34.786Z,60.8796
2023-03-29T06:30:35.747Z,61.0668
2023-03-29T06:31:36.531Z,61.8608
2023-03-29T06:32:36.874Z,60.4221
2023-03-29T06:33:37.047Z,62.7720
2023-03-29T06:34:38.576Z,62.3339
2023-03-29T06:35:37.599Z,59.5108
2023-03-29T06:36:37.692Z,61.1287
2023-03-29T06:37:37.910Z,60.5028
2023-03-29T06:38:37.927Z,59.8846
2023-03-29T06:39:38.173Z,59.6430
2023-03-29T06:40:38.203Z,60.5200
2023-03-29T06:41:38.231Z,60.1606
2023-03-29T06:42:38.379Z,59.4571
2023-03-29T06:43:38.393Z,60.1357
2023-03-29T06:44:38.414Z,59.4078
2023-03-29T06:45:38.668Z,59.1413
2023-03-29T06:46:39.019Z,57.5140
2023-03-29T06:47:39.086Z,58.5388
2023-03-29T06:48:39.362Z,58.3096
2023-03-29T06:49:39.387Z,58.8663
2023-03-29T06:50:39.493Z,58.5279
2023-03-29T06:51:39.532Z,58.2962
2023-03-29T06:52:39.731Z,58.1540
2023-03-29T06:53:41.104Z,59.0846
2023-03-29T06:54:41.260Z,60.8503
2023-03-29T06:55:41.661Z,59.0484
2023-03-29T06:56:43.121Z,59.5149
2023-03-29T06:57:43.635Z,59.7724
2023-03-29T06:58:43.681Z,59.4013
2023-03-29T06:59:43.955Z,57.7799
2023-03-29T07:00:44.403Z,57.9849
2023-03-29T07:01:44.854Z,57.2267
2023-03-29T07:02:44.906Z,57.8063
2023-03-29T07:03:46.732Z,58.9328
2023-03-29T07:04:47.149Z,57.9812
2023-03-29T07:05:47.428Z,57.6991
2023-03-29T07:06:47.476Z,57.8847
2023-03-29T07:07:47.764Z,59.1682
2023-03-29T07:08:47.956Z,60.0015
2023-03-29T07:09:48.006Z,59.9391
2023-03-29T07:10:48.121Z,63.2986
2023-03-29T07:11:48.332Z,64.9032
2023-03-29T07:12:48.516Z,66.4823
2023-03-29T07:13:49.043Z,65.6189
2023-03-29T07:14:49.124Z,65.9835
2023-03-29T07:15:49.242Z,69.1551
2023-03-29T07:16:49.326Z,67.7501
2023-03-29T07:17:49.548Z,68.6869
2023-03-29T07:18:49.565Z,69.3451
2023-03-29T07:19:49.636Z,69.8456
2023-03-29T07:20:49.815Z,70.6039
2023-03-29T07:21:49.852Z,69.8571
2023-03-29T07:22:49.862Z,70.6064
2023-03-29T07:23:50.079Z,70.2937
2023-03-29T07:24:50.085Z,69.5435
2023-03-29T07:25:50.114Z,68.6713
2023-03-29T07:27:03.261Z,69.8223
2023-03-29T07:27:50.684Z,69.9811
2023-03-29T07:28:50.730Z,68.6490
2023-03-29T07:29:50.877Z,68.6195
2023-03-29T07:30:51.569Z,67.9724
2023-03-29T07:31:51.778Z,68.8874
2023-03-29T07:32:52.234Z,69.0143
2023-03-29T07:33:53.332Z,67.3567
2023-03-29T07:34:53.446Z,69.5684
2023-03-29T07:35:53.518Z,69.3679
2023-03-29T07:36:53.781Z,69.4037
2023-03-29T07:37:53.781Z,69.1557
2023-03-29T07:38:56.301Z,69.5827
2023-03-29T07:39:55.289Z,69.0484
2023-03-29T07:40:55.504Z,69.5488
2023-03-29T07:41:55.532Z,70.4387
2023-03-29T07:42:55.561Z,69.0923
2023-03-29T07:43:55.718Z,65.4277
2023-03-29T07:44:55.734Z,65.4329
2023-03-29T07:45:55.989Z,67.9584
2023-03-29T07:46:56.170Z,67.0248
2023-03-29T07:47:56.478Z,67.6202
2023-03-29T07:48:56.658Z,67.3811
2023-03-29T07:49:57.000Z,63.0349
2023-03-29T07:50:57.082Z,66.0222
2023-03-29T07:51:57.848Z,69.7245
2023-03-29T07:52:58.126Z,67.9769
2023-03-29T07:53:58.255Z,67.1466
2023-03-29T07:54:58.495Z,68.0248
2023-03-29T07:55:58.590Z,65.5264
2023-03-29T07:56:58.826Z,64.5024
2023-03-29T07:57:59.167Z,63.5721
2023-03-29T07:58:59.321Z,64.4931
2023-03-29T07:59:59.548Z,63.9111
2023-03-29T08:00:59.772Z,62.4675
2023-03-29T08:02:00.918Z,61.7885
2023-03-29T08:03:01.040Z,64.6668
2023-03-29T08:04:01.414Z,64.7927
2023-03-29T08:05:01.983Z,63.8084
2023-03-29T08:06:02.585Z,65.3247
2023-03-29T08:07:02.730Z,65.2547
2023-03-29T08:08:02.830Z,65.7421
2023-03-29T08:09:03.122Z,65.5634
2023-03-29T08:10:03.314Z,63.3420
2023-03-29T08:11:03.687Z,64.9259
2023-03-29T08:12:04.020Z,63.7567
2023-03-29T08:13:04.089Z,62.2234
2023-03-29T08:14:04.248Z,64.4518
2023-03-29T08:15:04.432Z,65.1629
2023-03-29T08:16:04.842Z,66.5757
2023-03-29T08:17:05.130Z,65.0357
2023-03-29T08:18:05.904Z,64.3497
2023-03-29T08:19:06.711Z,66.4521
2023-03-29T08:20:07.307Z,66.6278
2023-03-29T08:21:07.901Z,65.7587
2023-03-29T08:22:07.924Z,66.3068
2023-03-29T08:23:08.234Z,66.0776
2023-03-29T08:24:08.507Z,67.3919
2023-03-29T08:25:09.779Z,66.3544
2023-03-29T08:26:09.924Z,65.8990
2023-03-29T08:27:10.251Z,67.3176
2023-03-29T08:28:10.387Z,67.9399
2023-03-29T08:29:10.485Z,67.0704
2023-03-29T08:30:10.742Z,66.4724
2023-03-29T08:31:11.417Z,67.4047
2023-03-29T08:32:11.654Z,66.1326
2023-03-29T08:33:12.058Z,66.2393
2023-03-29T08:34:12.501Z,64.2131
2023-03-29T08:35:12.715Z,66.8353
2023-03-29T08:36:13.044Z,64.4786
2023-03-29T08:37:13.140Z,63.8036
2023-03-29T08:38:13.333Z,64.2645
2023-03-29T08:39:13.646Z,63.5765
2023-03-29T08:40:13.712Z,63.9968
2023-03-29T08:41:14.553Z,63.6078
2023-03-29T08:42:14.585Z,63.5390
2023-03-29T08:43:14.662Z,63.9295
2023-03-29T08:44:14.938Z,63.5204
2023-03-29T08:45:15.006Z,62.9080
2023-03-29T08:46:15.317Z,62.0347
2023-03-29T08:47:16.202Z,61.0055
2023-03-29T08:48:16.663Z,61.9570
2023-03-29T08:49:16.830Z,62.3677
2023-03-29T08:50:16.952Z,64.0892
2023-03-29T08:51:18.016Z,60.0816
2023-03-29T08:52:18.174Z,62.6454
2023-03-29T08:53:19.409Z,63.3065
2023-03-29T08:54:19.569Z,63.1258
2023-03-29T08:55:19.904Z,60.7226
2023-03-29T08:56:20.051Z,60.2059
2023-03-29T08:57:20.710Z,61.7807
2023-03-29T08:58:20.860Z,59.7075
2023-03-29T08:59:21.318Z,61.7981
2023-03-29T09:00:21.406Z,62.0365
2023-03-29T09:01:21.521Z,60.8491
2023-03-29T09:02:21.979Z,60.4246
2023-03-29T09:03:22.492Z,60.5730
2023-03-29T09:04:22.781Z,59.8241
2023-03-29T09:05:22.947Z,57.8162
2023-03-29T09:06:23.212Z,58.7443
2023-03-29T09:07:26.463Z,58.6812
2023-03-29T09:08:24.041Z,59.7155
2023-03-29T09:09:25.004Z,59.7883
2023-03-29T09:10:25.210Z,58.0815
2023-03-29T09:11:25.512Z,58.8456
2023-03-29T09:12:25.612Z,58.4988
2023-03-29T09:13:25.935Z,58.9758
2023-03-29T09:14:26.091Z,59.3584
2023-03-29T09:15:26.395Z,59.7762
2023-03-29T09:16:26.486Z,59.5120
2023-03-29T09:17:27.128Z,60.3046
2023-03-29T09:18:27.464Z,60.7146
2023-03-29T09:19:27.659Z,59.5712
2023-03-29T09:20:28.010Z,60.8986
2023-03-29T09:21:28.217Z,61.9575
2023-03-29T09:22:28.297Z,63.0764
2023-03-29T09:23:28.542Z,61.2338
2023-03-29T09:24:28.881Z,61.3091
2023-03-29T09:25:29.094Z,60.1635
2023-03-29T09:26:29.490Z,62.2300
2023-03-29T09:27:29.750Z,61.0606
2023-03-29T09:28:29.907Z,61.7504
2023-03-29T09:29:31.238Z,60.8698
2023-03-29T09:30:31.372Z,61.0148
2023-03-29T09:31:31.817Z,60.1703
2023-03-29T09:32:31.961Z,60.4456
2023-03-29T09:33:32.216Z,60.6294
2023-03-29T09:34:32.324Z,60.7510
2023-03-29T09:35:32.463Z,61.5839
2023-03-29T09:36:32.758Z,60.9222
2023-03-29T09:37:32.869Z,61.3864
2023-03-29T09:38:33.221Z,61.7388
2023-03-29T09:39:33.237Z,61.1146
2023-03-29T09:40:33.359Z,63.5739
2023-03-29T09:41:33.603Z,63.0904
2023-03-29T09:42:33.717Z,61.2449
2023-03-29T09:43:33.768Z,62.6226
2023-03-29T09:44:33.976Z,60.3988
2023-03-29T09:45:34.121Z,62.4211
2023-03-29T09:46:34.520Z,61.3911
2023-03-29T09:47:34.658Z,62.3942
2023-03-29T09:48:35.251Z,60.9303
2023-03-29T09:49:35.356Z,60.2016
2023-03-29T09:50:35.918Z,60.2172
2023-03-29T09:51:36.007Z,60.3609
2023-03-29T09:52:36.315Z,60.1738
2023-03-29T09:53:36.485Z,60.3239
2023-03-29T09:54:36.809Z,60.2204
2023-03-29T09:55:37.073Z,60.2209
2023-03-29T09:56:37.338Z,59.3996
2023-03-29T09:57:37.525Z,59.8327
2023-03-29T09:58:37.894Z,61.7500
2023-03-29T09:59:38.017Z,62.4402
2023-03-29T10:00:38.141Z,62.0293
2023-03-29T10:01:38.794Z,61.3611
2023-03-29T10:02:39.302Z,59.4363
2023-03-29T10:03:39.529Z,59.5749
2023-03-29T10:04:39.994Z,61.1236
2023-03-29T10:05:40.122Z,61.2844
2023-03-29T10:06:40.214Z,60.7088
2023-03-29T10:07:40.434Z,60.7408
2023-03-29T10:08:41.838Z,59.7714
2023-03-29T10:09:42.152Z,59.4247
2023-03-29T10:10:42.567Z,60.2541
2023-03-29T10:11:42.893Z,60.0723
2023-03-29T10:12:43.265Z,59.8142
2023-03-29T10:13:43.366Z,59.3482
2023-03-29T10:14:43.532Z,59.1062
2023-03-29T10:15:44.550Z,59.2785
2023-03-29T10:16:44.775Z,58.2135
2023-03-29T10:17:45.143Z,57.9360
2023-03-29T10:18:45.370Z,61.1833
2023-03-29T10:19:45.650Z,58.9432
2023-03-29T10:20:45.854Z,59.1306
2023-03-29T10:21:46.156Z,59.1011
2023-03-29T10:22:46.300Z,61.1853
2023-03-29T10:23:46.763Z,57.1213
2023-03-29T10:24:46.862Z,58.6038
2023-03-29T10:25:47.135Z,59.3413
2023-03-29T10:26:47.320Z,59.7422
2023-03-29T10:27:47.827Z,59.8970
2023-03-29T10:28:48.049Z,59.4747
2023-03-29T10:29:48.413Z,57.8820
2023-03-29T10:30:48.690Z,57.4238
2023-03-29T10:31:49.257Z,57.7876
2023-03-29T10:32:49.804Z,56.1444
2023-03-29T10:33:50.038Z,57.7133
2023-03-29T10:34:50.515Z,56.4651
2023-03-29T10:35:50.738Z,56.6603
2023-03-29T10:36:51.103Z,57.7069
2023-03-29T10:37:51.581Z,57.3537
2023-03-29T10:38:52.004Z,56.5514
2023-03-29T10:39:52.292Z,53.3619
2023-03-29T10:40:52.723Z,54.6423
2023-03-29T10:41:53.114Z,57.3839
2023-03-29T10:42:53.226Z,55.4573
2023-03-29T10:43:54.376Z,52.8244
2023-03-29T10:44:54.835Z,53.5038
2023-03-29T10:45:55.522Z,53.2997
2023-03-29T10:46:56.782Z,55.6158
2023-03-29T10:47:57.117Z,56.1169
2023-03-29T10:48:57.520Z,54.9452
2023-03-29T10:49:58.652Z,56.1392
2023-03-29T10:50:59.032Z,54.6740
2023-03-29T10:51:59.219Z,52.6784
2023-03-29T10:52:59.806Z,52.3876
2023-03-29T10:54:00.048Z,51.6449
2023-03-29T10:55:00.563Z,52.6119
2023-03-29T10:56:00.757Z,57.4834
2023-03-29T10:57:01.139Z,55.5929
2023-03-29T10:58:01.588Z,56.0126
2023-03-29T10:59:01.811Z,58.7524
2023-03-29T11:00:02.265Z,57.9739
2023-03-29T11:01:02.778Z,59.4255
2023-03-29T11:02:03.539Z,59.0454
2023-03-29T11:03:04.236Z,61.7807
2023-03-29T11:04:05.488Z,61.7989
2023-03-29T11:05:06.067Z,62.2103
2023-03-29T11:06:06.441Z,60.0329
2023-03-29T11:07:06.858Z,60.3741
2023-03-29T11:08:07.086Z,58.8787
2023-03-29T11:09:07.440Z,57.3482
2023-03-29T11:10:07.870Z,58.4132
2023-03-29T11:11:08.348Z,56.4932
2023-03-29T11:12:15.583Z,56.1830
2023-03-29T11:13:09.668Z,56.3683
2023-03-29T11:14:10.476Z,54.0722
2023-03-29T11:15:10.662Z,53.1662
2023-03-29T11:16:11.089Z,53.3549
2023-03-29T11:17:11.330Z,53.6467
2023-03-29T11:18:11.722Z,52.1303
2023-03-29T11:19:12.106Z,53.4009
2023-03-29T11:20:12.530Z,52.1408
2023-03-29T11:21:12.928Z,53.2932
2023-03-29T11:22:13.101Z,52.4437
2023-03-29T11:23:13.506Z,50.7473
2023-03-29T11:24:13.708Z,53.0781
2023-03-29T11:25:14.124Z,51.9781
2023-03-29T11:26:14.490Z,52.4786
2023-03-29T11:27:14.704Z,51.7341
2023-03-29T11:28:15.133Z,50.1132
2023-03-29T11:29:15.289Z,47.6384
2023-03-29T11:30:15.950Z,49.0878
2023-03-29T11:31:16.793Z,51.0926
2023-03-29T11:32:17.112Z,46.9431
2023-03-29T11:33:18.039Z,46.1650
2023-03-29T11:34:18.301Z,47.0840
2023-03-29T11:35:18.678Z,46.5670
2023-03-29T11:36:19.200Z,46.5051
2023-03-29T11:37:19.416Z,44.4781
2023-03-29T11:38:19.940Z,44.8287
2023-03-29T11:39:20.404Z,46.2863
2023-03-29T11:40:20.691Z,46.2521
2023-03-29T11:41:21.109Z,45.5922
2023-03-29T11:42:21.317Z,45.7436
2023-03-29T11:43:21.629Z,44.6254
2023-03-29T11:44:22.008Z,43.5635
2023-03-29T11:45:22.255Z,43.9203
2023-03-29T11:46:22.847Z,45.5457
2023-03-29T11:47:23.511Z,46.7158
2023-03-29T11:48:24.112Z,48.6860
2023-03-29T11:49:24.546Z,48.2246
2023-03-29T11:50:25.975Z,48.6228
2023-03-29T11:51:26.154Z,47.7961
2023-03-29T11:52:26.509Z,48.2046
2023-03-29T11:53:26.769Z,47.7720
2023-03-29T11:54:27.164Z,48.8687
2023-03-29T11:55:27.979Z,48.6154
2023-03-29T11:56:28.253Z,48.9176
2023-03-29T11:57:28.809Z,50.2886
2023-03-29T11:58:29.373Z,48.9408
2023-03-29T11:59:29.667Z,50.6746
2023-03-29T12:00:30.039Z,51.3888
2023-03-29T12:01:30.484Z,50.8479
2023-03-29T12:02:31.249Z,52.9486
2023-03-29T12:03:31.911Z,52.1043
2023-03-29T12:04:33.120Z,52.7060
2023-03-29T12:05:33.531Z,53.0753
2023-03-29T12:06:33.786Z,52.8910
2023-03-29T12:07:34.205Z,52.4255
2023-03-29T12:08:34.539Z,51.8322
2023-03-29T12:09:34.731Z,52.0052
2023-03-29T12:10:35.177Z,52.5242
2023-03-29T12:11:35.352Z,54.4739
2023-03-29T12:12:36.280Z,53.2738
2023-03-29T12:13:36.669Z,54.1032
2023-03-29T12:14:37.348Z,53.3523
2023-03-29T12:15:37.791Z,52.5547
2023-03-29T12:16:38.104Z,54.0691
2023-03-29T12:17:38.739Z,54.2718
2023-03-29T12:18:39.691Z,55.8684
2023-03-29T12:19:42.658Z,53.7232
2023-03-29T12:20:41.183Z,53.6028
2023-03-29T12:21:42.065Z,54.5424
2023-03-29T12:22:42.531Z,52.2983
2023-03-29T12:23:42.711Z,54.3822
2023-03-29T12:24:43.064Z,54.3645
2023-03-29T12:25:43.669Z,55.2627
2023-03-29T12:26:43.927Z,57.7862
2023-03-29T12:27:44.286Z,56.7945
2023-03-29T12:28:44.651Z,56.2583
2023-03-29T12:29:44.954Z,57.0629
2023-03-29T12:30:45.358Z,56.5116
2023-03-29T12:31:45.868Z,57.5886
2023-03-29T12:32:46.473Z,57.6972
2023-03-29T12:33:46.883Z,54.3468
2023-03-29T12:34:47.226Z,54.4384
2023-03-29T12:35:47.535Z,53.2640
2023-03-29T12:36:47.902Z,53.9615
2023-03-29T12:37:48.140Z,54.0069
2023-03-29T12:38:48.486Z,53.4745
2023-03-29T12:39:48.898Z,55.3060
2023-03-29T12:40:49.260Z,54.9660
2023-03-29T12:41:49.584Z,54.4135
2023-03-29T12:42:49.858Z,52.5111
2023-03-29T12:43:50.317Z,53.8230
2023-03-29T12:44:50.866Z,54.6035
2023-03-29T12:45:51.187Z,54.0723
2023-03-29T12:46:52.293Z,55.2800
2023-03-29T12:47:52.763Z,54.1003
2023-03-29T12:48:53.207Z,52.3178
2023-03-29T12:49:53.825Z,51.3784
2023-03-29T12:50:54.051Z,47.6190
2023-03-29T12:51:54.454Z,50.8557
2023-03-29T12:52:54.923Z,51.6386
2023-03-29T12:53:55.115Z,51.0980
2023-03-29T12:54:55.465Z,50.1694
2023-03-29T12:55:55.921Z,51.7662
2023-03-29T12:56:56.685Z,51.8231
2023-03-29T12:57:57.024Z,52.6874
2023-03-29T12:58:57.241Z,55.5965
2023-03-29T12:59:57.662Z,56.0852
2023-03-29T13:00:58.210Z,55.7911
2023-03-29T13:01:58.917Z,55.7622